Time;durP1;ratioP1;P1;durP2;ratioP2;P2;SDS_P1;SDS_P2;PMS_P1;PMS_P2;Temp;Humidity;BMP_temperature;BMP_pressure;BME280_temperature;BME280_humidity;BME280_pressure;Samples;Min_cycle;Max_cycle;Signal;HPM_P1;HPM_P2
2023/11/18 00:00:23;;;;;;;22.53;16.10;;;;;;;5.16;100.00;101634.25;5000111;28;20203;-71
2023/11/18 00:02:50;;;;;;;20.90;16.20;;;;;;;5.16;100.00;101638.66;4995401;28;20238;-70
2023/11/18 00:05:17;;;;;;;25.57;16.60;;;;;;;5.14;100.00;101646.63;5001150;28;20780;-71
2023/11/18 00:07:44;;;;;;;23.80;16.30;;;;;;;5.14;100.00;101641.34;5000727;28;20207;-71
2023/11/18 00:10:12;;;;;;;29.50;17.97;;;;;;;5.15;100.00;101643.06;5003921;28;20229;-70
2023/11/18 00:12:41;;;;;;;29.83;19.50;;;;;;;5.16;100.00;101639.53;4996697;28;20573;-69
2023/11/18 00:15:10;;;;;;;32.63;20.07;;;;;;;5.16;100.00;101654.50;5004356;28;20624;-69
2023/11/18 00:17:37;;;;;;;30.27;21.17;;;;;;;5.16;100.00;101649.22;5001270;28;20678;-69
2023/11/18 00:20:08;;;;;;;33.50;21.43;;;;;;;5.16;100.00;101641.28;5003289;28;20207;-70
2023/11/18 00:22:35;;;;;;;29.07;18.77;;;;;;;5.15;100.00;101639.56;4998919;28;20223;-69
2023/11/18 00:25:01;;;;;;;30.53;20.23;;;;;;;5.16;100.00;101638.66;4997360;28;20218;-69
2023/11/18 00:27:29;;;;;;;28.67;19.60;;;;;;;5.16;100.00;101638.66;5000698;28;20290;-70
2023/11/18 00:29:56;;;;;;;28.80;19.37;;;;;;;5.14;100.00;101643.97;5002790;28;20226;-70
2023/11/18 00:32:22;;;;;;;26.83;18.33;;;;;;;5.13;100.00;101647.50;5002605;28;20741;-69
2023/11/18 00:34:49;;;;;;;27.97;19.13;;;;;;;5.13;100.00;101644.00;5005780;28;20244;-70
2023/11/18 00:37:15;;;;;;;28.27;18.33;;;;;;;5.12;100.00;101640.50;5004598;28;20238;-69
2023/11/18 00:39:42;;;;;;;28.33;18.47;;;;;;;5.12;100.00;101640.50;5004731;28;20234;-71
2023/11/18 00:42:09;;;;;;;27.13;18.77;;;;;;;5.13;100.00;101636.94;5004983;28;21077;-69
2023/11/18 00:44:37;;;;;;;28.63;19.20;;;;;;;5.14;100.00;101649.25;5005820;28;20302;-70
2023/11/18 00:47:04;;;;;;;27.73;18.10;;;;;;;5.15;100.00;101647.47;5004885;28;20199;-70
2023/11/18 00:49:30;;;;;;;29.27;19.30;;;;;;;5.16;100.00;101649.22;4999893;28;20208;-70
2023/11/18 00:51:57;;;;;;;27.10;18.70;;;;;;;5.18;100.00;101652.69;4999338;28;20282;-69
2023/11/18 00:54:24;;;;;;;29.37;18.30;;;;;;;5.17;100.00;101650.94;4999691;28;20456;-69
2023/11/18 00:56:50;;;;;;;28.73;19.03;;;;;;;5.17;100.00;101650.94;5005317;28;20313;-70
2023/11/18 00:59:16;;;;;;;27.07;18.63;;;;;;;5.19;100.00;101657.06;5003333;28;20203;-70
2023/11/18 01:01:44;;;;;;;27.00;18.27;;;;;;;5.21;100.00;101660.50;5003205;28;20217;-70
2023/11/18 01:04:11;;;;;;;30.80;20.20;;;;;;;5.23;100.00;101662.22;5000230;28;21706;-70
2023/11/18 01:06:37;;;;;;;28.83;19.20;;;;;;;5.23;100.00;101658.69;4998943;28;20211;-70
2023/11/18 01:09:06;;;;;;;33.67;21.10;;;;;;;5.23;100.00;101659.56;4999116;28;20209;-70
2023/11/18 01:11:33;;;;;;;34.43;21.37;;;;;;;5.24;100.00;101663.09;5001198;28;20212;-70
2023/11/18 01:13:59;;;;;;;31.20;20.67;;;;;;;5.24;100.00;101678.94;5001667;28;20218;-69
2023/11/18 01:16:26;;;;;;;26.47;19.77;;;;;;;5.25;100.00;101667.47;4997637;28;20215;-70
2023/11/18 01:18:54;;;;;;;32.77;19.97;;;;;;;5.25;100.00;101670.09;5003762;28;20227;-70
2023/11/18 01:21:21;;;;;;;29.83;20.10;;;;;;;5.26;100.00;101674.47;4999745;28;20207;-70
2023/11/18 01:23:48;;;;;;;33.87;20.93;;;;;;;5.27;100.00;101689.41;5003411;28;20227;-69
2023/11/18 01:26:15;;;;;;;31.90;20.33;;;;;;;5.28;100.00;101687.66;5000933;28;20222;-70
2023/11/18 01:28:43;;;;;;;33.43;21.87;;;;;;;5.28;100.00;101683.22;5001147;28;20239;-69
2023/11/18 01:31:09;;;;;;;32.90;21.30;;;;;;;5.30;100.00;101686.72;4999228;28;20211;-70
2023/11/18 01:33:37;;;;;;;32.33;21.90;;;;;;;5.31;100.00;101693.72;5001854;28;20285;-70
2023/11/18 01:36:05;;;;;;;38.07;22.40;;;;;;;5.32;100.00;101684.91;5002812;28;20219;-71
2023/11/18 01:38:32;;;;;;;38.50;22.73;;;;;;;5.34;100.00;101695.44;5001790;28;20257;-70
2023/11/18 01:41:00;;;;;;;36.00;22.43;;;;;;;5.33;100.00;101681.34;5000118;28;20207;-70
2023/11/18 01:43:27;;;;;;;33.67;21.83;;;;;;;5.33;100.00;101684.00;5003122;28;20219;-70
2023/11/18 01:45:53;;;;;;;39.97;23.23;;;;;;;5.34;100.00;101685.72;5000598;28;20199;-70
2023/11/18 01:48:22;;;;;;;35.27;22.47;;;;;;;5.34;100.00;101688.38;5001307;28;20195;-70
2023/11/18 01:50:49;;;;;;;31.97;21.33;;;;;;;5.36;100.00;101688.34;5000150;28;20203;-70
2023/11/18 01:53:17;;;;;;;31.40;21.40;;;;;;;5.36;100.00;101686.56;5003263;28;20233;-70
2023/11/18 01:55:43;;;;;;;32.87;22.20;;;;;;;5.36;100.00;101689.19;4998652;28;20206;-70
2023/11/18 01:58:10;;;;;;;31.53;20.93;;;;;;;5.36;100.00;101689.19;4998509;28;20231;-72
2023/11/18 02:00:38;;;;;;;30.17;21.23;;;;;;;5.35;100.00;101697.16;4999788;28;20207;-72
2023/11/18 02:03:05;;;;;;;30.00;21.20;;;;;;;5.35;100.00;101698.03;5000223;28;20254;-72
2023/11/18 02:05:34;;;;;;;28.97;20.67;;;;;;;5.35;100.00;101695.41;4999473;28;20517;-72
2023/11/18 02:08:02;;;;;;;34.33;22.00;;;;;;;5.37;100.00;101703.28;4995173;28;20570;-72
2023/11/18 02:10:32;;;;;;;37.00;22.10;;;;;;;5.35;100.00;101698.03;5002317;28;20445;-72
2023/11/18 02:13:07;;;;;;;35.43;21.83;;;;;;;5.36;100.00;101710.34;5002133;28;20284;-72
2023/11/18 02:15:35;;;;;;;33.13;20.87;;;;;;;5.34;100.00;101706.88;4999991;28;20955;-69
2023/11/18 02:18:05;;;;;;;32.60;21.40;;;;;;;5.34;100.00;101716.56;5000412;28;20672;-72
2023/11/18 02:20:31;;;;;;;32.37;21.63;;;;;;;5.35;100.00;101721.81;5002248;28;21006;-71
2023/11/18 02:22:58;;;;;;;34.80;21.67;;;;;;;5.34;100.00;101720.06;5005537;28;20234;-72
2023/11/18 02:25:26;;;;;;;32.57;20.87;;;;;;;5.34;100.00;101716.56;5004826;28;20203;-71
2023/11/18 02:27:54;;;;;;;31.73;20.57;;;;;;;5.34;100.00;101714.78;5001951;28;20209;-71
2023/11/18 02:30:22;;;;;;;33.70;20.63;;;;;;;5.33;100.00;101714.81;5003208;28;20210;-71
2023/11/18 02:32:57;;;;;;;34.53;19.73;;;;;;;5.32;100.00;101711.31;5000650;28;20223;-71
2023/11/18 02:35:29;;;;;;;32.93;21.30;;;;;;;5.31;100.00;101722.78;5002615;28;20221;-72
2023/11/18 02:37:57;;;;;;;38.70;21.73;;;;;;;5.32;100.00;101728.94;5005329;28;20288;-72
2023/11/18 02:40:30;;;;;;;33.10;21.23;;;;;;;5.30;100.00;101728.97;5005615;28;20211;-72
2023/11/18 02:42:59;;;;;;;35.53;21.47;;;;;;;5.31;100.00;101729.84;5003762;28;20247;-72
2023/11/18 02:45:28;;;;;;;34.87;21.73;;;;;;;5.28;100.00;101736.06;5008181;28;20210;-72
2023/11/18 02:47:57;;;;;;;35.50;21.17;;;;;;;5.31;100.00;101727.19;5001874;28;20211;-71
2023/11/18 02:50:24;;;;;;;34.97;22.27;;;;;;;5.29;100.00;101727.22;5005173;28;20199;-72
2023/11/18 02:52:50;;;;;;;39.00;22.17;;;;;;;5.28;100.00;101727.25;5005041;28;20239;-70
2023/11/18 02:55:17;;;;;;;36.43;19.60;;;;;;;5.27;100.00;101726.41;4999951;28;20210;-72
2023/11/18 02:57:43;;;;;;;34.47;20.80;;;;;;;5.27;100.00;101729.03;5005471;28;20233;-72
2023/11/18 03:00:18;;;;;;;40.00;22.40;;;;;;;5.25;100.00;101717.63;5003769;28;20216;-71
2023/11/18 03:02:46;;;;;;;38.50;21.37;;;;;;;5.25;100.00;101717.63;5005479;28;20601;-71
2023/11/18 03:05:12;;;;;;;38.10;21.43;;;;;;;5.25;100.00;101717.63;4998956;28;20218;-71
2023/11/18 03:07:39;;;;;;;36.93;21.37;;;;;;;5.25;100.00;101704.44;5003312;28;20211;-72
2023/11/18 03:10:10;;;;;;;38.00;21.83;;;;;;;5.25;100.00;101701.78;5005680;28;20207;-72
2023/11/18 03:12:37;;;;;;;37.23;21.17;;;;;;;5.26;100.00;101707.94;5003548;28;20284;-72
2023/11/18 03:15:05;;;;;;;35.87;21.37;;;;;;;5.24;100.00;101702.69;5005339;28;20285;-71
2023/11/18 03:17:33;;;;;;;33.27;20.77;;;;;;;5.24;100.00;101703.56;5008293;28;20241;-72
2023/11/18 03:20:00;;;;;;;34.93;20.90;;;;;;;5.24;100.00;101707.97;5005223;28;20298;-71
2023/11/18 03:22:26;;;;;;;38.60;22.00;;;;;;;5.24;100.00;101702.69;5006177;28;20227;-71
2023/11/18 03:24:53;;;;;;;35.67;22.17;;;;;;;5.25;100.00;101707.06;5002462;28;20235;-70
2023/11/18 03:27:19;;;;;;;35.93;20.53;;;;;;;5.24;100.00;101711.50;5001666;28;20203;-72
2023/11/18 03:29:46;;;;;;;36.23;21.23;;;;;;;5.26;100.00;101710.59;5006820;28;20214;-72
2023/11/18 03:32:13;;;;;;;34.80;21.03;;;;;;;5.26;100.00;101721.16;5005488;28;20207;-72
2023/11/18 03:34:41;;;;;;;34.57;21.47;;;;;;;5.27;100.00;101731.69;5006305;28;20257;-72
2023/11/18 03:37:08;;;;;;;38.43;22.30;;;;;;;5.26;100.00;101724.66;5006540;28;20210;-72
2023/11/18 03:39:35;;;;;;;35.47;21.60;;;;;;;5.25;100.00;101730.84;5003013;28;20668;-68
2023/11/18 03:42:00;;;;;;;36.67;21.37;;;;;;;5.27;100.00;101729.03;5007364;28;20218;-71
2023/11/18 03:44:26;;;;;;;34.30;21.20;;;;;;;5.28;100.00;101722.84;5004391;28;20234;-72
2023/11/18 03:46:53;;;;;;;29.83;19.83;;;;;;;5.24;100.00;101731.75;5001730;28;20245;-71
2023/11/18 03:49:20;;;;;;;37.33;20.93;;;;;;;5.22;100.00;101729.13;5004319;28;20199;-70
2023/11/18 03:51:49;;;;;;;32.67;20.40;;;;;;;5.23;100.00;101736.16;5006359;28;20671;-69
2023/11/18 03:54:15;;;;;;;30.77;20.70;;;;;;;5.21;100.00;101729.16;5005398;28;20943;-71
2023/11/18 03:56:42;;;;;;;35.60;21.87;;;;;;;5.20;100.00;101738.00;5006364;28;20948;-70
2023/11/18 03:59:09;;;;;;;35.03;21.57;;;;;;;5.20;100.00;101735.34;5002745;28;20608;-72
2023/11/18 04:01:36;;;;;;;39.67;21.53;;;;;;;5.20;100.00;101732.72;5007595;28;20265;-72
2023/11/18 04:04:02;;;;;;;36.73;21.90;;;;;;;5.20;100.00;101730.94;5001477;28;20224;-71
2023/11/18 04:06:30;;;;;;;42.13;23.20;;;;;;;5.21;100.00;101731.81;5003987;28;20693;-72
2023/11/18 04:08:58;;;;;;;35.77;20.87;;;;;;;5.22;100.00;101729.13;5003375;28;20203;-71
2023/11/18 04:11:25;;;;;;;31.47;20.10;;;;;;;5.20;100.00;101727.44;4999260;28;20218;-71
2023/11/18 04:13:51;;;;;;;33.07;20.13;;;;;;;5.20;100.00;101724.78;5001133;28;20701;-72
2023/11/18 04:16:18;;;;;;;33.57;21.03;;;;;;;5.17;100.00;101719.63;5003808;28;20667;-71
2023/11/18 04:18:46;;;;;;;35.43;21.80;;;;;;;5.15;100.00;101719.66;5002737;28;20262;-72
2023/11/18 04:21:13;;;;;;;35.17;21.40;;;;;;;5.15;100.00;101724.06;5005181;28;20207;-70
2023/11/18 04:23:41;;;;;;;34.73;22.10;;;;;;;5.15;100.00;101717.00;5002051;28;20232;-72
2023/11/18 04:26:10;;;;;;;39.47;22.23;;;;;;;5.15;100.00;101710.84;4997262;28;20207;-72
2023/11/18 04:28:37;;;;;;;43.50;22.50;;;;;;;5.14;100.00;101710.00;4997589;28;20257;-71
2023/11/18 04:31:04;;;;;;;40.70;22.37;;;;;;;5.11;100.00;101704.78;5005640;28;20294;-72
2023/11/18 04:33:31;;;;;;;42.30;23.13;;;;;;;5.10;100.00;101692.47;5006938;28;20292;-72
2023/11/18 04:35:58;;;;;;;38.73;22.70;;;;;;;5.09;100.00;101696.03;5008306;28;20214;-71
2023/11/18 04:38:25;;;;;;;44.03;23.43;;;;;;;5.09;100.00;101693.38;5001132;28;20887;-72
2023/11/18 04:40:51;;;;;;;41.10;24.23;;;;;;;5.10;100.00;101678.41;4999455;28;20234;-72
2023/11/18 04:43:19;;;;;;;40.03;22.73;;;;;;;5.10;100.00;101686.31;5005308;28;20234;-72
2023/11/18 04:45:46;;;;;;;38.70;22.37;;;;;;;5.09;100.00;101684.59;5005706;28;20222;-71
2023/11/18 04:48:13;;;;;;;41.37;22.27;;;;;;;5.08;100.00;101691.63;5004144;28;20199;-72
2023/11/18 04:50:40;;;;;;;39.80;22.70;;;;;;;5.07;100.00;101691.69;5002835;28;20235;-72
2023/11/18 04:53:08;;;;;;;40.57;21.73;;;;;;;5.07;100.00;101686.41;5006591;28;20238;-72
2023/11/18 04:55:34;;;;;;;38.77;22.23;;;;;;;5.04;100.00;101687.34;5004971;28;20205;-71
2023/11/18 04:58:02;;;;;;;41.47;21.40;;;;;;;5.03;100.00;101695.28;4996443;28;20253;-71
2023/11/18 05:00:30;;;;;;;41.73;22.17;;;;;;;5.02;100.00;101697.06;5004194;28;20980;-72
2023/11/18 05:02:56;;;;;;;42.17;21.67;;;;;;;5.00;100.00;101690.97;5003637;28;20239;-71
2023/11/18 05:05:23;;;;;;;40.97;22.37;;;;;;;4.99;100.00;101683.09;5001561;28;20604;-71
2023/11/18 05:07:49;;;;;;;43.63;22.33;;;;;;;4.98;100.00;101687.50;5006350;28;20207;-71
2023/11/18 05:10:16;;;;;;;41.70;23.50;;;;;;;4.96;100.00;101685.78;5002779;28;20221;-72
2023/11/18 05:12:43;;;;;;;43.43;22.70;;;;;;;4.96;100.00;101684.03;4999762;28;20234;-72
2023/11/18 05:15:10;;;;;;;41.87;21.63;;;;;;;4.95;100.00;101681.41;4999211;28;20226;-72
2023/11/18 05:17:38;;;;;;;36.03;22.37;;;;;;;4.94;100.00;101677.03;5000744;28;20199;-71
2023/11/18 05:20:08;;;;;;;46.83;22.67;;;;;;;4.93;100.00;101680.59;5002973;28;20322;-70
2023/11/18 05:22:36;;;;;;;44.67;22.63;;;;;;;4.91;100.00;101675.34;5004786;28;20301;-71
2023/11/18 05:25:04;;;;;;;43.23;22.33;;;;;;;4.89;100.00;101678.00;5003633;28;20621;-72
2023/11/18 05:27:31;;;;;;;44.27;21.60;;;;;;;4.86;100.00;101675.44;5002006;28;20347;-72
2023/11/18 05:29:59;;;;;;;40.47;21.80;;;;;;;4.85;100.00;101671.06;5000202;28;20261;-71
2023/11/18 05:32:27;;;;;;;45.47;22.73;;;;;;;4.83;100.00;101667.63;4997726;28;20355;-71
2023/11/18 05:34:57;;;;;;;43.77;22.57;;;;;;;4.81;100.00;101671.19;5001363;28;20210;-71
2023/11/18 05:37:24;;;;;;;44.40;23.10;;;;;;;4.78;100.00;101674.75;5008014;28;20230;-72
2023/11/18 05:39:58;;;;;;;47.43;22.53;;;;;;;4.76;100.00;101670.41;5009532;28;20237;-71
2023/11/18 05:42:25;;;;;;;48.43;22.07;;;;;;;4.75;100.00;101680.09;5003063;28;20294;-72
2023/11/18 05:44:57;;;;;;;47.47;24.13;;;;;;;4.71;100.00;101675.78;5007444;28;20900;-72
2023/11/18 05:47:25;;;;;;;45.33;22.23;;;;;;;4.67;100.00;101674.13;5002186;28;20612;-71
2023/11/18 05:49:52;;;;;;;45.43;22.27;;;;;;;4.64;100.00;101665.44;5000927;28;20218;-71
2023/11/18 05:52:20;;;;;;;47.00;23.00;;;;;;;4.59;100.00;101657.63;5000550;28;20237;-71
2023/11/18 05:54:47;;;;;;;42.30;22.40;;;;;;;4.53;100.00;101649.81;5001862;28;20206;-71
2023/11/18 05:57:14;;;;;;;50.43;23.47;;;;;;;4.48;100.00;101644.66;4998610;28;20230;-71
2023/11/18 05:59:41;;;;;;;47.20;22.97;;;;;;;4.45;100.00;101649.16;5003226;28;20230;-71
2023/11/18 06:02:07;;;;;;;42.53;21.73;;;;;;;4.39;100.00;101636.09;5000580;28;20207;-71
2023/11/18 06:04:35;;;;;;;50.30;23.17;;;;;;;4.32;100.00;101645.03;5000871;28;20238;-71
2023/11/18 06:07:02;;;;;;;45.73;21.77;;;;;;;4.27;100.00;101658.34;5001624;28;20257;-71
2023/11/18 06:09:30;;;;;;;45.50;22.23;;;;;;;4.24;100.00;101652.25;4997995;28;20206;-71
2023/11/18 06:11:57;;;;;;;45.73;23.20;;;;;;;4.21;100.00;101660.22;4997071;28;20216;-71
2023/11/18 06:14:23;;;;;;;45.10;21.83;;;;;;;4.16;100.00;101653.25;5001541;28;20223;-71
2023/11/18 06:16:50;;;;;;;47.73;22.83;;;;;;;4.13;100.00;101658.59;4999219;28;20210;-71
2023/11/18 06:19:17;;;;;;;49.33;23.47;;;;;;;4.09;100.00;101651.69;5000589;28;20230;-71
2023/11/18 06:21:43;;;;;;;47.03;22.17;;;;;;;4.07;100.00;101649.97;4995698;28;20218;-70
2023/11/18 06:24:11;;;;;;;47.53;22.03;;;;;;;4.03;100.00;101651.78;5002376;28;20227;-71
2023/11/18 06:26:39;;;;;;;61.30;24.40;;;;;;;3.95;100.00;101661.59;5000646;28;20215;-72
2023/11/18 06:29:05;;;;;;;47.53;21.00;;;;;;;3.91;100.00;101651.19;5001739;28;20204;-71
2023/11/18 06:31:32;;;;;;;48.23;22.60;;;;;;;3.87;100.00;101645.09;5003193;28;20274;-70
2023/11/18 06:33:59;;;;;;;48.13;21.97;;;;;;;3.84;100.00;101648.66;5002637;28;20583;-70
2023/11/18 06:36:26;;;;;;;42.87;20.17;;;;;;;3.80;100.00;101661.91;5001221;28;20214;-70
2023/11/18 06:38:53;;;;;;;43.03;20.77;;;;;;;3.75;100.00;101667.28;5001749;28;20246;-70
2023/11/18 06:41:23;;;;;;;46.93;21.77;;;;;;;3.72;100.00;101666.47;4998303;28;20276;-71
2023/11/18 06:43:56;;;;;;;44.20;20.60;;;;;;;3.71;100.00;101670.00;4998605;28;20271;-70
2023/11/18 06:46:24;;;;;;;49.10;21.60;;;;;;;3.69;100.00;101671.78;4995784;28;20207;-71
2023/11/18 06:48:54;;;;;;;50.20;22.30;;;;;;;3.66;100.00;101667.44;5003055;28;20659;-70
2023/11/18 06:51:23;;;;;;;49.97;22.50;;;;;;;3.63;100.00;101675.41;4999937;28;20285;-70
2023/11/18 06:53:50;;;;;;;47.27;22.07;;;;;;;3.60;100.00;101675.44;4999911;28;20310;-70
2023/11/18 06:56:16;;;;;;;47.27;22.27;;;;;;;3.60;100.00;101683.34;5003229;28;20214;-70
2023/11/18 06:58:44;;;;;;;51.30;22.60;;;;;;;3.60;100.00;101690.38;5000833;28;20262;-69
2023/11/18 07:01:14;;;;;;;48.63;21.97;;;;;;;3.58;100.00;101694.84;5004738;28;20207;-70
2023/11/18 07:03:42;;;;;;;46.70;21.30;;;;;;;3.56;100.00;101691.38;5000936;28;20234;-69
2023/11/18 07:06:09;;;;;;;49.27;22.63;;;;;;;3.54;100.00;101687.88;5004687;28;20277;-70
2023/11/18 07:08:35;;;;;;;48.33;21.20;;;;;;;3.53;100.00;101686.16;5002806;28;20215;-70
2023/11/18 07:11:02;;;;;;;54.60;24.27;;;;;;;3.52;100.00;101693.19;5006128;28;20199;-69
2023/11/18 07:13:29;;;;;;;46.67;22.13;;;;;;;3.51;100.00;101696.72;5003457;28;20573;-70
2023/11/18 07:15:57;;;;;;;48.13;20.93;;;;;;;3.49;100.00;101691.47;5004536;28;20204;-70
2023/11/18 07:18:25;;;;;;;45.37;22.57;;;;;;;3.45;100.00;101689.78;5002686;28;20595;-70
2023/11/18 07:20:52;;;;;;;42.50;21.07;;;;;;;3.42;100.00;101697.72;5002870;28;20238;-70
2023/11/18 07:23:19;;;;;;;48.30;21.57;;;;;;;3.42;100.00;101696.84;5002977;28;20662;-70
2023/11/18 07:25:45;;;;;;;46.80;21.73;;;;;;;3.42;100.00;101695.09;4998106;28;20222;-69
2023/11/18 07:28:14;;;;;;;50.23;21.53;;;;;;;3.41;100.00;101698.63;5002148;28;20203;-70
2023/11/18 07:30:41;;;;;;;51.77;22.83;;;;;;;3.42;100.00;101687.19;5003186;28;20313;-69
2023/11/18 07:33:08;;;;;;;48.57;23.57;;;;;;;3.44;100.00;101703.84;5005243;28;20753;-70
2023/11/18 07:35:36;;;;;;;49.00;22.87;;;;;;;3.46;100.00;101695.91;5005916;28;20564;-70
2023/11/18 07:38:03;;;;;;;53.50;25.17;;;;;;;3.49;100.00;101694.09;5004361;28;20231;-70
2023/11/18 07:40:29;;;;;;;54.20;22.97;;;;;;;3.51;100.00;101688.81;5002252;28;20763;-70
2023/11/18 07:42:56;;;;;;;50.10;24.63;;;;;;;3.54;100.00;101682.63;4997428;28;20218;-70
2023/11/18 07:45:23;;;;;;;55.53;24.67;;;;;;;3.57;100.00;101685.22;5003506;28;20207;-70
2023/11/18 07:47:50;;;;;;;53.47;24.00;;;;;;;3.59;100.00;101686.88;5004253;28;20234;-71
2023/11/18 07:50:19;;;;;;;59.27;26.23;;;;;;;3.63;100.00;101706.16;5002351;28;20230;-70
2023/11/18 07:52:47;;;;;;;56.77;24.27;;;;;;;3.66;100.00;101709.59;5005878;28;20233;-69
2023/11/18 07:55:14;;;;;;;60.27;26.03;;;;;;;3.69;100.00;101713.94;5007287;28;20203;-68
2023/11/18 07:57:40;;;;;;;53.27;24.73;;;;;;;3.71;100.00;101712.16;5002276;28;20212;-70
2023/11/18 08:00:09;;;;;;;59.23;23.23;;;;;;;3.74;100.00;101715.63;5004246;28;20233;-69
2023/11/18 08:02:36;;;;;;;57.90;24.27;;;;;;;3.78;100.00;101713.75;5005093;28;20227;-70
2023/11/18 08:05:04;;;;;;;59.13;24.80;;;;;;;3.79;100.00;101718.13;5006945;28;20265;-70
2023/11/18 08:07:30;;;;;;;55.00;23.70;;;;;;;3.82;100.00;101720.72;5005549;28;20560;-69
2023/11/18 08:09:58;;;;;;;57.27;24.60;;;;;;;3.81;100.00;101713.72;5002784;28;20694;-70
2023/11/18 08:12:25;;;;;;;58.87;25.90;;;;;;;3.83;100.00;101704.00;5000766;28;20824;-70
2023/11/18 08:14:51;;;;;;;51.83;23.27;;;;;;;3.85;100.00;101707.50;5004796;28;20230;-70
2023/11/18 08:17:18;;;;;;;56.97;25.00;;;;;;;3.89;100.00;101705.69;5000538;28;20203;-69
2023/11/18 08:19:46;;;;;;;55.93;23.93;;;;;;;3.94;100.00;101695.94;5002397;28;20226;-70
2023/11/18 08:22:13;;;;;;;57.23;23.10;;;;;;;3.98;100.00;101694.94;5003450;28;20211;-70
2023/11/18 08:24:40;;;;;;;56.07;24.37;;;;;;;4.01;100.00;101690.50;5003794;28;20212;-70
2023/11/18 08:27:07;;;;;;;55.90;23.00;;;;;;;4.06;100.00;101682.50;5003057;28;20204;-70
2023/11/18 08:29:34;;;;;;;51.03;22.00;;;;;;;4.08;100.00;101673.66;5005173;28;20210;-70
2023/11/18 08:32:01;;;;;;;50.90;23.33;;;;;;;4.14;100.00;101670.88;5003468;28;20203;-69
2023/11/18 08:34:27;;;;;;;53.60;23.40;;;;;;;4.16;100.00;101668.22;5004735;28;20724;-70
2023/11/18 08:36:54;;;;;;;55.27;24.47;;;;;;;4.21;100.00;101669.00;5005268;28;20663;-70
2023/11/18 08:39:20;;;;;;;55.43;25.13;;;;;;;4.26;100.00;101668.91;4999842;28;20238;-70
2023/11/18 08:41:50;;;;;;;50.60;23.03;;;;;;;4.32;100.00;101659.06;5005510;28;20206;-70
2023/11/18 08:44:18;;;;;;;49.50;22.57;;;;;;;4.36;100.00;101655.47;5004869;28;20732;-69
2023/11/18 08:46:45;;;;;;;55.97;23.20;;;;;;;4.41;100.00;101666.81;4998386;28;20207;-70
2023/11/18 08:49:11;;;;;;;52.60;24.40;;;;;;;4.44;100.00;101668.50;5000069;28;20294;-70
2023/11/18 08:51:38;;;;;;;59.20;24.53;;;;;;;4.49;100.00;101662.22;5002233;28;20256;-71
2023/11/18 08:54:22;;;;;;;52.33;23.20;;;;;;;4.53;100.00;101678.84;5007901;28;20804;-70
2023/11/18 08:56:50;;;;;;;59.80;25.33;;;;;;;4.58;100.00;101676.13;4999665;28;20207;-70
2023/11/18 08:59:20;;;;;;;50.30;22.23;;;;;;;4.62;100.00;101683.94;5003850;28;20223;-71
2023/11/18 09:01:48;;;;;;;55.97;22.67;;;;;;;4.68;100.00;101694.34;5002056;28;20694;-70
2023/11/18 09:04:15;;;;;;;51.50;23.20;;;;;;;4.70;100.00;101695.16;5002287;28;20227;-70
2023/11/18 09:06:42;;;;;;;54.37;22.00;;;;;;;4.75;100.00;101693.31;5004477;28;20214;-70
2023/11/18 09:09:11;;;;;;;53.20;22.13;;;;;;;4.80;100.00;101694.06;5003361;28;20676;-70
2023/11/18 09:11:40;;;;;;;48.03;23.53;;;;;;;4.85;100.00;101686.91;5002979;28;20218;-70
2023/11/18 09:14:07;;;;;;;45.57;20.77;;;;;;;4.88;100.00;101676.28;4998953;28;20227;-69
2023/11/18 09:16:39;;;;;;;40.80;20.33;;;;;;;4.92;100.00;101670.94;4993068;28;20203;-69
2023/11/18 09:19:06;;;;;;;45.47;19.53;;;;;;;4.97;100.00;101680.47;4998671;28;20690;-69
2023/11/18 09:21:35;;;;;;;42.53;19.57;;;;;;;4.97;100.00;101675.19;4998614;28;20227;-70
2023/11/18 09:24:04;;;;;;;43.70;21.63;;;;;;;5.01;100.00;101668.09;5002529;28;20236;-70
2023/11/18 09:26:31;;;;;;;43.67;20.40;;;;;;;5.02;100.00;101661.88;5003494;28;20203;-70
2023/11/18 09:28:58;;;;;;;44.03;20.00;;;;;;;5.02;100.00;101652.19;5004428;28;20211;-70
2023/11/18 09:31:25;;;;;;;44.47;21.23;;;;;;;5.05;100.00;101645.94;5001450;28;20199;-70
2023/11/18 09:33:53;;;;;;;41.07;20.57;;;;;;;5.07;100.00;101637.09;4996273;28;20223;-70
2023/11/18 09:36:21;;;;;;;44.57;21.43;;;;;;;5.13;100.00;101651.94;4994868;28;21234;-70
2023/11/18 09:38:48;;;;;;;46.23;19.13;;;;;;;5.13;100.00;101654.56;5001447;28;20525;-70
2023/11/18 09:41:15;;;;;;;42.63;19.67;;;;;;;5.17;100.00;101650.94;5006089;28;20714;-70
2023/11/18 09:43:45;;;;;;;37.03;18.23;;;;;;;5.21;100.00;101649.94;5005935;28;20317;-70
2023/11/18 09:46:15;;;;;;;39.47;19.10;;;;;;;5.26;100.00;101658.63;4999935;28;20325;-70
2023/11/18 09:48:46;;;;;;;35.33;18.40;;;;;;;5.30;100.00;101655.00;5001009;28;20294;-70
2023/11/18 09:51:17;;;;;;;38.83;16.87;;;;;;;5.36;100.00;101654.88;4995753;28;20211;-71
2023/11/18 09:53:46;;;;;;;32.57;17.57;;;;;;;5.41;100.00;101655.59;5002590;28;20230;-70
2023/11/18 09:56:26;;;;;;;31.43;15.80;;;;;;;5.45;100.00;101646.69;5002042;28;20524;-69
2023/11/18 09:59:03;;;;;;;30.70;16.07;;;;;;;5.49;100.00;101643.06;5001737;28;20216;-71
2023/11/18 10:01:32;;;;;;;21.33;12.37;;;;;;;5.54;100.00;101642.94;5001939;28;20223;-70
2023/11/18 10:03:59;;;;;;;20.67;11.30;;;;;;;5.54;98.74;101651.75;5003162;28;20262;-69
2023/11/18 10:06:33;;;;;;;16.80;9.07;;;;;;;5.55;96.48;101653.44;5000884;28;20595;-69
2023/11/18 10:09:14;;;;;;;12.20;7.83;;;;;;;5.55;93.32;101653.44;5002202;28;20202;-69
2023/11/18 10:11:42;;;;;;;9.63;6.77;;;;;;;5.57;91.76;101640.19;4998894;28;20207;-70
2023/11/18 10:14:08;;;;;;;15.57;6.47;;;;;;;5.64;88.86;101635.63;5000199;28;20222;-70
2023/11/18 10:16:35;;;;;;;10.77;7.07;;;;;;;5.67;87.84;101627.63;4992119;28;20713;-70
2023/11/18 10:19:08;;;;;;;9.03;6.37;;;;;;;5.67;87.64;101624.97;5000930;28;20290;-70
2023/11/18 10:21:39;;;;;;;12.43;7.40;;;;;;;5.70;86.74;101622.25;4989912;28;20229;-70
2023/11/18 10:24:11;;;;;;;10.53;6.43;;;;;;;5.74;87.17;101610.66;4993848;28;20942;-70
2023/11/18 10:26:38;;;;;;;13.00;7.03;;;;;;;5.83;86.99;101597.19;4992402;28;20289;-70
2023/11/18 10:29:07;;;;;;;11.97;7.40;;;;;;;5.87;86.76;101591.78;5002219;28;20257;-69
2023/11/18 10:31:35;;;;;;;9.80;7.20;;;;;;;5.99;86.92;101592.34;5001036;28;20675;-70
2023/11/18 10:34:03;;;;;;;11.73;7.07;;;;;;;6.02;87.28;101593.13;4996549;28;20651;-70
2023/11/18 10:36:33;;;;;;;14.10;6.83;;;;;;;6.10;86.14;101596.41;5002690;28;20301;-70
2023/11/18 10:39:12;;;;;;;12.47;7.20;;;;;;;6.19;85.52;101584.69;5003354;28;20214;-69
2023/11/18 10:41:42;;;;;;;12.07;7.23;;;;;;;6.22;85.17;101587.25;5004406;28;20234;-71
2023/11/18 10:44:13;;;;;;;10.97;6.50;;;;;;;6.29;83.96;101588.78;4997472;28;20249;-71
2023/11/18 10:46:41;;;;;;;11.93;6.60;;;;;;;6.35;82.75;101587.75;5005455;28;20210;-71
2023/11/18 10:49:09;;;;;;;11.87;6.23;;;;;;;6.37;82.67;101589.44;5000737;28;20203;-71
2023/11/18 10:51:38;;;;;;;11.17;6.07;;;;;;;6.39;81.99;101577.03;5003029;28;20200;-70
2023/11/18 10:54:13;;;;;;;9.87;6.53;;;;;;;6.42;81.68;101560.19;5000124;28;20321;-71
2023/11/18 10:56:47;;;;;;;8.33;5.90;;;;;;;6.45;81.33;101566.22;5006172;28;20210;-71
2023/11/18 10:59:16;;;;;;;10.63;6.07;;;;;;;6.47;80.79;101558.25;5004627;28;20618;-71
2023/11/18 11:01:44;;;;;;;10.07;6.07;;;;;;;6.50;80.51;101560.78;4993611;28;20218;-71
2023/11/18 11:04:12;;;;;;;11.20;6.47;;;;;;;6.52;80.86;101561.63;5003610;28;20223;-71
2023/11/18 11:06:42;;;;;;;10.93;6.80;;;;;;;6.54;81.46;101550.06;5006166;28;20230;-71
2023/11/18 11:09:16;;;;;;;10.13;6.40;;;;;;;6.54;80.44;101542.13;5007492;28;20549;-72
2023/11/18 11:11:48;;;;;;;10.20;6.27;;;;;;;6.58;80.09;101533.19;5000995;28;20337;-71
2023/11/18 11:14:18;;;;;;;8.93;6.30;;;;;;;6.58;80.34;101534.97;5000421;28;20222;-71